createdAt,value
2018-09-13T00:01:55.803Z,17.30
2018-09-13T00:04:23.185Z,12.70
2018-09-13T00:06:50.629Z,13.60
2018-09-13T00:09:18.009Z,14.27
2018-09-13T00:11:45.309Z,14.70
2018-09-13T00:14:12.655Z,13.77
2018-09-13T00:16:39.921Z,13.90
2018-09-13T00:19:07.231Z,15.10
2018-09-13T00:21:35.176Z,13.13
2018-09-13T00:24:02.575Z,13.80
2018-09-13T00:26:30.529Z,12.53
2018-09-13T00:28:58.059Z,25.93
2018-09-13T00:31:25.311Z,14.03
2018-09-13T00:33:52.821Z,14.63
2018-09-13T00:36:20.092Z,13.20
2018-09-13T00:38:47.540Z,48.33
2018-09-13T00:41:14.882Z,16.90
2018-09-13T00:43:42.211Z,12.67
2018-09-13T00:46:09.642Z,12.40
2018-09-13T00:48:36.914Z,11.57
2018-09-13T00:51:04.182Z,14.17
2018-09-13T00:53:31.549Z,13.73
2018-09-13T00:55:58.880Z,11.23
2018-09-13T00:58:26.187Z,10.90
2018-09-13T01:00:53.790Z,11.37
2018-09-13T01:03:21.092Z,11.80
2018-09-13T01:05:48.572Z,66.73
2018-09-13T01:08:15.857Z,45.90
2018-09-13T01:10:43.365Z,22.33
2018-09-13T01:13:10.798Z,92.47
2018-09-13T01:15:38.734Z,93.37
2018-09-13T01:18:06.020Z,48.67
2018-09-13T01:20:34.004Z,47.53
2018-09-13T01:23:01.356Z,63.40
2018-09-13T01:25:28.659Z,37.17
2018-09-13T01:27:55.935Z,51.03
2018-09-13T01:30:23.188Z,58.97
2018-09-13T01:32:50.458Z,55.53
2018-09-13T01:35:17.898Z,28.10
2018-09-13T01:37:45.475Z,69.03
2018-09-13T01:40:13.026Z,80.03
2018-09-13T01:42:40.305Z,79.03
2018-09-13T01:45:07.643Z,66.33
2018-09-13T01:47:34.959Z,26.27
2018-09-13T01:50:02.357Z,114.77
2018-09-13T01:52:29.646Z,116.50
2018-09-13T01:54:56.950Z,68.93
2018-09-13T01:57:24.420Z,84.77
2018-09-13T01:59:51.694Z,12.80
2018-09-13T02:02:18.996Z,42.93
2018-09-13T02:04:46.243Z,56.57
2018-09-13T02:07:13.739Z,61.60
2018-09-13T02:09:41.004Z,42.03
2018-09-13T02:12:08.323Z,64.83
2018-09-13T02:14:35.624Z,52.60
2018-09-13T02:17:03.167Z,49.90
2018-09-13T02:19:30.437Z,21.67
2018-09-13T02:21:57.710Z,29.77
2018-09-13T02:24:25.033Z,37.77
2018-09-13T02:26:52.308Z,57.00
2018-09-13T02:29:19.864Z,24.93
2018-09-13T02:31:47.140Z,14.30
2018-09-13T02:34:14.786Z,15.33
2018-09-13T02:36:42.181Z,15.30
2018-09-13T02:39:10.438Z,13.83
2018-09-13T02:41:38.031Z,14.33
2018-09-13T02:44:06.662Z,15.30
2018-09-13T02:46:34.118Z,15.27
2018-09-13T02:49:01.441Z,13.17
2018-09-13T02:51:28.820Z,14.40
2018-09-13T02:53:56.064Z,38.80
2018-09-13T02:56:23.331Z,29.80
2018-09-13T02:58:50.836Z,23.90
2018-09-13T03:01:18.095Z,14.87
2018-09-13T03:03:45.482Z,15.20
2018-09-13T03:06:12.873Z,14.80
2018-09-13T03:08:40.360Z,14.70
2018-09-13T03:11:07.786Z,15.67
2018-09-13T03:13:35.066Z,18.10
2018-09-13T03:16:02.379Z,14.70
2018-09-13T03:18:29.760Z,18.83
2018-09-13T03:20:57.235Z,12.87
2018-09-13T03:23:24.575Z,16.50
2018-09-13T03:25:51.845Z,14.57
2018-09-13T03:28:19.172Z,16.90
2018-09-13T03:30:46.532Z,13.93
2018-09-13T03:33:13.986Z,14.50
2018-09-13T03:35:41.383Z,13.93
2018-09-13T03:38:08.674Z,15.47
2018-09-13T03:40:35.933Z,14.67
2018-09-13T03:43:03.238Z,16.23
2018-09-13T03:45:30.536Z,17.63
2018-09-13T03:47:57.818Z,13.63
2018-09-13T03:50:25.173Z,14.67
2018-09-13T03:52:52.494Z,14.00
2018-09-13T03:55:19.779Z,14.90
2018-09-13T03:57:47.054Z,13.73
2018-09-13T04:00:14.527Z,14.60
2018-09-13T04:02:41.799Z,15.13
2018-09-13T04:05:09.198Z,14.13
2018-09-13T04:07:36.472Z,13.33
2018-09-13T04:10:03.832Z,16.10
2018-09-13T04:12:31.114Z,17.70
2018-09-13T04:14:58.410Z,14.07
2018-09-13T04:17:25.778Z,15.53
2018-09-13T04:19:54.370Z,13.63
2018-09-13T04:22:21.696Z,14.23
2018-09-13T04:24:48.963Z,15.00
2018-09-13T04:27:16.584Z,13.20
2018-09-13T04:29:43.956Z,15.80
2018-09-13T04:32:11.253Z,15.50
2018-09-13T04:34:38.639Z,15.10
2018-09-13T04:37:06.097Z,16.80
2018-09-13T04:39:33.409Z,16.30
2018-09-13T04:42:00.666Z,13.53
2018-09-13T04:44:27.956Z,13.97
2018-09-13T04:46:55.221Z,15.43
2018-09-13T04:49:22.514Z,14.13
2018-09-13T04:51:50.111Z,14.77
2018-09-13T04:54:17.386Z,15.60
2018-09-13T04:56:44.794Z,34.80
2018-09-13T04:59:12.100Z,41.23
2018-09-13T05:01:40.839Z,16.17
2018-09-13T05:04:08.285Z,14.30
2018-09-13T05:06:35.757Z,15.50
2018-09-13T05:09:03.684Z,20.23
2018-09-13T05:11:30.959Z,36.87
2018-09-13T05:13:58.284Z,15.60
2018-09-13T05:16:25.871Z,16.10
2018-09-13T05:18:53.130Z,14.53
2018-09-13T05:21:20.439Z,16.83
2018-09-13T05:23:47.710Z,16.73
2018-09-13T05:26:15.507Z,15.63
2018-09-13T05:28:42.751Z,17.57
2018-09-13T05:31:10.215Z,17.07
2018-09-13T05:33:37.702Z,17.13
2018-09-13T05:36:05.014Z,15.63
2018-09-13T05:38:32.310Z,18.13
2018-09-13T05:40:59.690Z,17.50
2018-09-13T05:43:27.068Z,15.43
2018-09-13T05:45:54.397Z,15.87
2018-09-13T05:48:21.834Z,16.27
2018-09-13T05:50:49.129Z,16.60
2018-09-13T05:53:16.731Z,16.60
2018-09-13T05:55:44.129Z,17.87
2018-09-13T05:58:11.475Z,17.17
2018-09-13T06:00:38.723Z,17.77
2018-09-13T06:03:06.012Z,17.00
2018-09-13T06:05:33.295Z,17.30
2018-09-13T06:08:00.941Z,16.17
2018-09-13T06:10:28.322Z,14.80
2018-09-13T06:12:55.663Z,15.30
2018-09-13T06:15:22.975Z,15.60
2018-09-13T06:17:50.231Z,16.47
2018-09-13T06:20:17.575Z,15.07
2018-09-13T06:22:44.948Z,17.60
2018-09-13T06:25:12.242Z,16.20
2018-09-13T06:27:39.524Z,16.63
2018-09-13T06:30:06.853Z,15.40
2018-09-13T06:32:34.295Z,17.40
2018-09-13T06:35:01.592Z,14.70
2018-09-13T06:37:29.427Z,15.57
2018-09-13T06:39:56.705Z,21.93
2018-09-13T06:42:24.105Z,16.17
2018-09-13T06:44:51.372Z,19.10
2018-09-13T06:47:18.662Z,15.67
2018-09-13T06:49:46.010Z,18.30
2018-09-13T06:52:13.391Z,15.57
2018-09-13T06:54:40.689Z,16.83
2018-09-13T06:57:07.945Z,15.20
2018-09-13T06:59:35.446Z,13.77
2018-09-13T07:02:02.733Z,15.13
2018-09-13T07:04:30.345Z,14.63
2018-09-13T07:06:57.623Z,13.10
2018-09-13T07:09:24.890Z,14.93
2018-09-13T07:11:52.213Z,17.00
2018-09-13T07:14:19.499Z,15.17
2018-09-13T07:16:46.820Z,14.90
2018-09-13T07:19:14.295Z,15.20
2018-09-13T07:21:41.669Z,14.40
2018-09-13T07:24:08.984Z,14.40
2018-09-13T07:26:36.531Z,13.40
2018-09-13T07:29:03.927Z,14.47
2018-09-13T07:31:35.896Z,13.70
2018-09-13T07:34:03.191Z,13.37
2018-09-13T07:36:30.692Z,16.93
2018-09-13T07:38:58.745Z,15.27
2018-09-13T07:41:26.093Z,15.50
2018-09-13T07:43:53.355Z,16.17
2018-09-13T07:46:20.741Z,14.70
2018-09-13T07:48:48.189Z,17.53
2018-09-13T07:51:15.466Z,16.13
2018-09-13T07:53:42.747Z,16.37
2018-09-13T07:56:10.224Z,13.97
2018-09-13T07:58:38.127Z,15.73
2018-09-13T08:01:05.387Z,14.43
2018-09-13T08:03:32.828Z,14.57
2018-09-13T08:06:00.095Z,16.13
2018-09-13T08:08:27.516Z,14.33
2018-09-13T08:10:54.885Z,19.43
2018-09-13T08:13:22.179Z,15.07
2018-09-13T08:15:49.504Z,13.63
2018-09-13T08:18:16.771Z,15.33
2018-09-13T08:20:44.042Z,14.73
2018-09-13T08:23:11.422Z,14.23
2018-09-13T08:25:38.772Z,14.10
2018-09-13T08:28:06.034Z,15.07
2018-09-13T08:30:33.349Z,14.27
2018-09-13T08:33:00.933Z,13.57
2018-09-13T08:35:28.294Z,13.40
2018-09-13T08:37:55.584Z,15.10
2018-09-13T08:40:23.090Z,15.33
2018-09-13T08:42:50.543Z,18.83
2018-09-13T08:45:17.801Z,17.23
2018-09-13T08:47:45.376Z,22.70
2018-09-13T08:50:12.688Z,15.23
2018-09-13T08:52:40.191Z,15.13
2018-09-13T08:55:09.871Z,19.03
2018-09-13T08:57:37.099Z,13.13
2018-09-13T09:00:05.418Z,14.50
2018-09-13T09:02:32.872Z,14.40
2018-09-13T09:05:00.166Z,13.57
2018-09-13T09:07:27.506Z,14.37
2018-09-13T09:09:54.783Z,12.63
2018-09-13T09:12:22.093Z,13.60
2018-09-13T09:14:49.522Z,15.63
2018-09-13T09:17:17.055Z,15.10
2018-09-13T09:19:44.331Z,15.60
2018-09-13T09:22:11.962Z,15.40
2018-09-13T09:24:39.254Z,14.60
2018-09-13T09:27:06.532Z,15.30
2018-09-13T09:29:33.827Z,13.90
2018-09-13T09:32:01.112Z,16.23
2018-09-13T09:34:28.435Z,14.77
2018-09-13T09:36:55.766Z,17.70
2018-09-13T09:39:23.050Z,14.10
2018-09-13T09:41:50.741Z,14.83
2018-09-13T09:44:18.046Z,14.70
2018-09-13T09:46:45.469Z,14.43
2018-09-13T09:49:12.782Z,14.67
2018-09-13T09:51:40.200Z,14.33
2018-09-13T09:54:07.610Z,15.10
2018-09-13T09:56:34.938Z,12.60
2018-09-13T09:59:02.233Z,17.07
2018-09-13T10:01:34.567Z,13.23
2018-09-13T10:04:01.848Z,18.20
2018-09-13T10:06:29.138Z,14.07
2018-09-13T10:08:57.141Z,14.53
2018-09-13T10:11:24.458Z,13.00
2018-09-13T10:13:52.109Z,12.30
2018-09-13T10:16:24.739Z,12.50
2018-09-13T10:18:57.339Z,11.60
2018-09-13T10:21:30.032Z,13.13
2018-09-13T10:24:02.698Z,11.53
2018-09-13T10:26:35.377Z,13.13
2018-09-13T10:29:08.237Z,13.70
2018-09-13T10:31:40.881Z,11.07
2018-09-13T10:34:13.587Z,12.80
2018-09-13T10:36:46.355Z,13.17
2018-09-13T10:39:18.963Z,15.10
2018-09-13T10:41:51.537Z,13.23
2018-09-13T10:44:24.549Z,11.10
2018-09-13T10:46:57.250Z,12.13
2018-09-13T10:49:29.965Z,12.10
2018-09-13T10:51:58.549Z,10.40
2018-09-13T10:54:35.129Z,11.73
2018-09-13T10:57:06.985Z,12.40
2018-09-13T10:59:34.227Z,10.90
2018-09-13T11:02:01.528Z,12.70
2018-09-13T11:04:28.897Z,11.63
2018-09-13T11:06:56.386Z,11.80
2018-09-13T11:09:23.823Z,11.40
2018-09-13T11:11:51.130Z,13.00
2018-09-13T11:14:22.689Z,12.90
2018-09-13T11:16:49.995Z,12.30
2018-09-13T11:19:17.390Z,12.77
2018-09-13T11:21:45.740Z,12.27
2018-09-13T11:24:13.068Z,14.90
2018-09-13T11:26:40.352Z,13.87
2018-09-13T11:29:07.646Z,14.80
2018-09-13T11:31:34.960Z,12.23
2018-09-13T11:34:02.433Z,13.93
2018-09-13T11:36:29.704Z,16.20
2018-09-13T11:38:57.018Z,16.30
2018-09-13T11:41:24.511Z,15.90
2018-09-13T11:43:51.912Z,16.77
2018-09-13T11:46:19.244Z,18.17
2018-09-13T11:48:46.664Z,15.20
2018-09-13T11:51:14.099Z,17.27
2018-09-13T11:53:41.386Z,14.90
2018-09-13T11:56:08.707Z,15.50
2018-09-13T11:58:36.022Z,14.10
2018-09-13T12:01:03.715Z,13.67
2018-09-13T12:03:31.017Z,15.03
2018-09-13T12:05:58.830Z,14.00
2018-09-13T12:08:26.418Z,14.13
2018-09-13T12:10:53.871Z,15.50
2018-09-13T12:13:21.167Z,17.70
2018-09-13T12:15:48.450Z,16.07
2018-09-13T12:18:15.734Z,18.67
2018-09-13T12:20:43.036Z,18.20
2018-09-13T12:23:10.326Z,16.77
2018-09-13T12:25:37.646Z,16.93
2018-09-13T12:28:05.546Z,16.73
2018-09-13T12:30:32.981Z,16.73
2018-09-13T12:33:00.291Z,16.90
2018-09-13T12:35:27.693Z,17.90
2018-09-13T12:37:54.979Z,18.10
2018-09-13T12:40:22.454Z,19.30
2018-09-13T12:42:49.771Z,17.60
2018-09-13T12:45:17.107Z,18.70
2018-09-13T12:47:44.532Z,17.93
2018-09-13T12:50:11.838Z,18.00
2018-09-13T12:52:39.144Z,16.27
2018-09-13T12:55:06.762Z,16.10
2018-09-13T12:57:34.166Z,15.60
2018-09-13T13:00:01.524Z,16.63
2018-09-13T13:02:28.823Z,18.47
2018-09-13T13:04:56.648Z,17.93
2018-09-13T13:07:23.951Z,17.90
2018-09-13T13:09:51.240Z,15.70
2018-09-13T13:12:18.555Z,17.37
2018-09-13T13:14:45.934Z,16.67
2018-09-13T13:17:13.251Z,16.97
2018-09-13T13:19:40.562Z,17.90
2018-09-13T13:22:07.899Z,16.50
2018-09-13T13:24:35.183Z,13.83
2018-09-13T13:27:02.529Z,13.90
2018-09-13T13:29:29.797Z,16.10
2018-09-13T13:31:57.338Z,15.33
2018-09-13T13:34:24.656Z,16.10
2018-09-13T13:36:51.924Z,16.83
2018-09-13T13:39:19.347Z,15.73
2018-09-13T13:41:46.685Z,13.67
2018-09-13T13:44:14.188Z,13.80
2018-09-13T13:46:41.665Z,14.37
2018-09-13T13:49:08.950Z,14.40
2018-09-13T13:51:36.498Z,14.40
2018-09-13T13:54:03.812Z,15.53
2018-09-13T13:56:31.160Z,17.43
2018-09-13T13:58:58.343Z,17.20
2018-09-13T14:01:25.929Z,16.03
2018-09-13T14:03:53.363Z,15.60
2018-09-13T14:06:21.545Z,16.10
2018-09-13T14:08:49.043Z,16.37
2018-09-13T14:11:16.393Z,15.77
2018-09-13T14:13:43.644Z,15.97
2018-09-13T14:16:10.970Z,16.20
2018-09-13T14:18:38.326Z,17.20
2018-09-13T14:21:05.679Z,35.00
2018-09-13T14:23:33.134Z,31.67
2018-09-13T14:26:00.750Z,28.53
2018-09-13T14:28:28.234Z,15.93
2018-09-13T14:30:55.813Z,17.00
2018-09-13T14:33:23.451Z,13.17
2018-09-13T14:35:50.779Z,13.30
2018-09-13T14:38:18.127Z,13.10
2018-09-13T14:40:45.438Z,14.23
2018-09-13T14:43:12.728Z,14.70
2018-09-13T14:45:40.440Z,15.67
2018-09-13T14:48:07.732Z,13.80
2018-09-13T14:50:35.030Z,17.10
2018-09-13T14:53:02.298Z,14.33
2018-09-13T14:55:29.751Z,14.97
2018-09-13T14:57:57.368Z,13.83
2018-09-13T15:00:25.091Z,14.47
2018-09-13T15:02:52.395Z,14.77
2018-09-13T15:05:19.747Z,15.20
2018-09-13T15:07:47.094Z,14.03
2018-09-13T15:10:14.433Z,12.80
2018-09-13T15:12:41.925Z,13.83
2018-09-13T15:15:09.223Z,13.10
2018-09-13T15:17:36.577Z,13.03
2018-09-13T15:20:03.896Z,13.93
2018-09-13T15:22:31.248Z,14.50
2018-09-13T15:24:58.542Z,13.67
2018-09-13T15:27:25.843Z,14.60
2018-09-13T15:29:53.225Z,13.63
2018-09-13T15:32:20.517Z,12.60
2018-09-13T15:34:47.790Z,14.77
2018-09-13T15:37:15.171Z,14.50
2018-09-13T15:39:42.538Z,15.57
2018-09-13T15:42:09.890Z,13.53
2018-09-13T15:44:37.250Z,15.33
2018-09-13T15:47:04.910Z,13.67
2018-09-13T15:49:32.503Z,12.23
2018-09-13T15:51:59.880Z,12.03
2018-09-13T15:54:27.353Z,12.23
2018-09-13T15:56:54.849Z,12.77
2018-09-13T15:59:22.276Z,11.77
2018-09-13T16:01:49.614Z,13.17
2018-09-13T16:04:17.109Z,43.43
2018-09-13T16:06:44.387Z,19.77
2018-09-13T16:09:11.926Z,12.87
2018-09-13T16:11:39.178Z,12.10
2018-09-13T16:14:06.650Z,12.50
2018-09-13T16:16:34.499Z,14.03
2018-09-13T16:19:01.963Z,14.17
2018-09-13T16:21:29.367Z,15.30
2018-09-13T16:23:57.134Z,12.93
2018-09-13T16:26:24.534Z,13.17
2018-09-13T16:28:52.032Z,15.60
2018-09-13T16:31:20.423Z,12.40
2018-09-13T16:33:47.555Z,13.10
2018-09-13T16:36:27.058Z,11.50
2018-09-13T16:38:59.775Z,12.80
2018-09-13T16:41:32.717Z,12.80
2018-09-13T16:44:04.867Z,72.17
2018-09-13T16:46:37.774Z,19.10
2018-09-13T16:49:05.462Z,16.03
2018-09-13T16:51:33.053Z,11.77
2018-09-13T16:54:00.343Z,12.70
2018-09-13T16:56:27.655Z,12.03
2018-09-13T16:58:55.071Z,13.30
2018-09-13T17:01:22.627Z,11.00
2018-09-13T17:03:49.905Z,12.13
2018-09-13T17:06:17.367Z,11.60
2018-09-13T17:08:44.629Z,11.00
2018-09-13T17:11:12.046Z,11.10
2018-09-13T17:13:39.577Z,11.30
2018-09-13T17:16:06.823Z,10.90
2018-09-13T17:18:34.119Z,11.10
2018-09-13T17:21:01.412Z,11.47
2018-09-13T17:23:28.810Z,10.13
2018-09-13T17:25:56.097Z,17.43
2018-09-13T17:28:23.552Z,38.17
2018-09-13T17:30:50.922Z,20.03
2018-09-13T17:33:18.267Z,37.70
2018-09-13T17:35:45.561Z,107.00
2018-09-13T17:38:13.132Z,14.17
2018-09-13T17:40:40.790Z,22.20
2018-09-13T17:43:08.067Z,52.60
2018-09-13T17:45:35.360Z,55.13
2018-09-13T17:48:02.676Z,17.60
2018-09-13T17:50:30.004Z,12.80
2018-09-13T17:52:57.324Z,14.63
2018-09-13T17:55:24.724Z,12.80
2018-09-13T17:57:52.114Z,14.03
2018-09-13T18:00:19.461Z,12.43
2018-09-13T18:02:47.051Z,13.27
2018-09-13T18:05:14.391Z,14.00
2018-09-13T18:07:41.717Z,12.93
2018-09-13T18:10:09.053Z,13.83
2018-09-13T18:12:36.657Z,13.93
2018-09-13T18:15:04.350Z,15.23
2018-09-13T18:17:31.880Z,14.57
2018-09-13T18:19:59.266Z,16.30
2018-09-13T18:22:27.003Z,13.70
2018-09-13T18:24:54.284Z,15.63
2018-09-13T18:27:21.772Z,13.00
2018-09-13T18:29:49.314Z,13.57
2018-09-13T18:32:16.680Z,13.43
2018-09-13T18:34:44.047Z,12.13
2018-09-13T18:37:11.391Z,12.73
2018-09-13T18:39:38.679Z,15.30
2018-09-13T18:42:06.444Z,14.70
2018-09-13T18:44:34.142Z,11.80
2018-09-13T18:47:01.441Z,14.30
2018-09-13T18:49:28.771Z,12.90
2018-09-13T18:51:56.123Z,12.90
2018-09-13T18:54:23.538Z,12.87
2018-09-13T18:56:51.193Z,11.83
2018-09-13T18:59:18.603Z,11.97
2018-09-13T19:01:46.550Z,13.73
2018-09-13T19:06:52.718Z,13.60
2018-09-13T19:09:20.063Z,12.60
2018-09-13T19:11:47.351Z,12.47
2018-09-13T19:14:14.833Z,12.70
2018-09-13T19:16:48.610Z,12.87
2018-09-13T19:19:15.880Z,12.70
2018-09-13T19:21:48.835Z,12.63
2018-09-13T19:24:16.175Z,14.47
2018-09-13T19:26:43.806Z,13.50
2018-09-13T19:29:11.330Z,14.40
2018-09-13T19:31:38.782Z,15.40
2018-09-13T19:34:06.105Z,15.03
2018-09-13T19:36:33.419Z,13.93
2018-09-13T19:39:00.730Z,13.63
2018-09-13T19:41:28.200Z,13.20
2018-09-13T19:43:55.759Z,13.50
2018-09-13T19:46:23.123Z,14.77
2018-09-13T19:48:50.424Z,13.57
2018-09-13T19:51:17.945Z,14.00
2018-09-13T19:53:45.183Z,13.57
2018-09-13T19:56:13.256Z,15.10
2018-09-13T19:58:40.715Z,13.50
2018-09-13T20:01:08.064Z,16.00
2018-09-13T20:03:35.328Z,13.10
2018-09-13T20:06:02.608Z,15.10
2018-09-13T20:08:29.965Z,14.20
2018-09-13T20:10:57.245Z,12.43
2018-09-13T20:13:24.550Z,13.50
2018-09-13T20:15:51.973Z,14.57
2018-09-13T20:18:19.410Z,14.40
2018-09-13T20:20:46.663Z,13.90
2018-09-13T20:23:14.122Z,14.90
2018-09-13T20:25:41.871Z,14.43
2018-09-13T20:28:09.388Z,17.80
2018-09-13T20:30:36.754Z,14.83
2018-09-13T20:33:04.075Z,14.60
2018-09-13T20:35:31.453Z,15.00
2018-09-13T20:37:58.738Z,14.47
2018-09-13T20:40:26.019Z,13.30
2018-09-13T20:42:53.543Z,21.63
2018-09-13T20:45:20.746Z,16.77
2018-09-13T20:47:48.183Z,14.47
2018-09-13T20:50:15.876Z,14.67
2018-09-13T20:52:43.550Z,14.40
2018-09-13T20:55:13.964Z,13.47
2018-09-13T20:57:41.430Z,14.67
2018-09-13T21:00:08.871Z,14.07
2018-09-13T21:02:36.171Z,14.93
2018-09-13T21:05:03.725Z,14.37
2018-09-13T21:07:33.719Z,16.07
2018-09-13T21:10:01.070Z,14.67
2018-09-13T21:12:29.000Z,16.60
2018-09-13T21:14:56.487Z,13.73
2018-09-13T21:17:23.801Z,16.40
2018-09-13T21:19:51.129Z,16.67
2018-09-13T21:22:19.115Z,18.83
2018-09-13T21:24:46.406Z,14.90
2018-09-13T21:27:13.758Z,15.50
2018-09-13T21:29:41.135Z,14.30
2018-09-13T21:32:08.464Z,14.53
2018-09-13T21:34:35.815Z,14.23
2018-09-13T21:37:03.186Z,14.40
2018-09-13T21:39:30.487Z,15.53
2018-09-13T21:41:58.207Z,15.00
2018-09-13T21:44:25.560Z,15.60
2018-09-13T21:46:52.906Z,14.53
2018-09-13T21:49:20.216Z,15.20
2018-09-13T21:51:47.707Z,13.90
2018-09-13T21:54:15.579Z,15.43
2018-09-13T21:56:42.873Z,14.77
2018-09-13T21:59:10.172Z,14.00
2018-09-13T22:01:37.447Z,15.60
2018-09-13T22:04:04.739Z,14.23
2018-09-13T22:06:31.993Z,14.10
2018-09-13T22:08:59.312Z,13.83
2018-09-13T22:11:26.783Z,13.80
2018-09-13T22:13:54.006Z,13.13
2018-09-13T22:16:21.266Z,13.20
2018-09-13T22:18:48.732Z,12.50
2018-09-13T22:21:16.060Z,13.50
2018-09-13T22:23:43.519Z,12.93
2018-09-13T22:26:10.985Z,12.50
2018-09-13T22:28:38.473Z,13.17
2018-09-13T22:31:05.786Z,13.27
2018-09-13T22:33:33.208Z,12.40
2018-09-13T22:36:00.537Z,12.07
2018-09-13T22:38:27.845Z,12.90
2018-09-13T22:40:55.165Z,10.80
2018-09-13T22:43:22.484Z,12.47
2018-09-13T22:45:50.018Z,11.80
2018-09-13T22:48:17.478Z,10.10
2018-09-13T22:50:44.965Z,10.93
2018-09-13T22:53:12.370Z,11.10
2018-09-13T22:55:39.668Z,12.30
2018-09-13T22:58:07.020Z,9.83
2018-09-13T23:00:34.327Z,13.20
2018-09-13T23:03:01.661Z,11.30
2018-09-13T23:05:29.227Z,12.57
2018-09-13T23:07:56.410Z,10.63
2018-09-13T23:10:23.765Z,11.67
2018-09-13T23:12:51.102Z,10.40
2018-09-13T23:15:18.509Z,10.33
2018-09-13T23:17:46.063Z,10.43
2018-09-13T23:20:13.304Z,10.43
2018-09-13T23:22:40.635Z,11.33
2018-09-13T23:25:08.076Z,10.40
2018-09-13T23:27:35.384Z,12.80
2018-09-13T23:30:02.717Z,10.60
2018-09-13T23:32:30.080Z,11.27
2018-09-13T23:34:57.511Z,10.27
2018-09-13T23:37:24.842Z,9.73
2018-09-13T23:39:52.303Z,10.03
2018-09-13T23:42:19.526Z,11.00
2018-09-13T23:44:46.808Z,10.93
2018-09-13T23:47:14.106Z,10.60
2018-09-13T23:49:41.406Z,12.00
2018-09-13T23:52:08.786Z,10.30
2018-09-13T23:54:36.063Z,12.27
2018-09-13T23:57:03.532Z,10.00
2018-09-13T23:59:30.848Z,11.93
